Time;durP1;ratioP1;P1;durP2;ratioP2;P2;SDS_P1;SDS_P2;PMS_P1;PMS_P2;Temp;Humidity;BMP_temperature;BMP_pressure;BME280_temperature;BME280_humidity;BME280_pressure;Samples;Min_cycle;Max_cycle;Signal;HPM_P1;HPM_P2
2022/01/11 00:00:10;;;;;;;78.78;70.38;;;;;;;0.65;100.00;101122.63;5012110;28;20050;-78
2022/01/11 00:02:41;;;;;;;71.53;64.07;;;;;;;0.12;100.00;101125.41;5013153;28;20057;-79
2022/01/11 00:05:16;;;;;;;67.00;60.45;;;;;;;1.56;100.00;101127.81;5016987;28;20053;-79
2022/01/11 00:07:44;;;;;;;75.82;64.50;;;;;;;0.28;100.00;101132.78;5015496;28;20050;-79
2022/01/11 00:10:14;;;;;;;65.18;57.40;;;;;;;1.72;100.00;101142.97;5012739;28;20058;-78
2022/01/11 00:12:42;;;;;;;74.13;62.50;;;;;;;0.29;100.00;101144.88;5011706;28;20060;-79
2022/01/11 00:15:09;;;;;;;64.60;57.75;;;;;;;0.94;100.00;101139.38;5010989;28;20116;-78
2022/01/11 00:17:36;;;;;;;66.45;59.35;;;;;;;0.86;100.00;101129.59;5011492;28;20050;-81
2022/01/11 00:20:04;;;;;;;68.50;61.30;;;;;;;1.01;100.00;101146.59;5016720;28;20128;-79
2022/01/11 00:22:34;;;;;;;64.20;57.72;;;;;;;0.13;100.00;101152.34;5012317;28;20486;-78
2022/01/11 00:25:01;;;;;;;67.40;60.53;;;;;;;0.09;100.00;101149.19;5011182;28;20108;-82
2022/01/11 00:27:28;;;;;;;65.07;58.10;;;;;;;1.14;100.00;101151.56;5013901;28;20054;-79
2022/01/11 00:30:03;;;;;;;66.60;59.88;;;;;;;0.96;100.00;101158.41;5011776;28;20149;-79
2022/01/11 00:32:39;;;;;;;61.10;54.35;;;;;;;-0.14;100.00;101156.28;5012539;28;20084;-79
2022/01/11 00:35:10;;;;;;;56.95;52.13;;;;;;;1.69;100.00;101166.81;5016225;28;20079;-79
2022/01/11 00:37:37;;;;;;;68.35;61.72;;;;;;;1.36;100.00;101171.44;5013628;28;20057;-80
2022/01/11 00:40:08;;;;;;;62.80;56.35;;;;;;;0.87;100.00;101179.16;5011881;28;20123;-79
2022/01/11 00:42:35;;;;;;;63.38;57.78;;;;;;;1.30;100.00;101167.59;5007977;28;20045;-79
2022/01/11 00:45:04;;;;;;;65.15;59.15;;;;;;;0.86;100.00;101171.44;5012823;28;20041;-79
2022/01/11 00:47:30;;;;;;;65.53;59.22;;;;;;;0.81;100.00;101174.44;5011611;28;20046;-81
2022/01/11 00:49:57;;;;;;;74.15;67.60;;;;;;;0.67;100.00;101170.41;5015489;28;20072;-79
2022/01/11 00:52:24;;;;;;;69.47;63.58;;;;;;;-0.24;100.00;101178.88;5013829;28;20049;-83
2022/01/11 00:54:51;;;;;;;68.70;62.65;;;;;;;0.05;100.00;101186.94;5010373;28;20485;-79
2022/01/11 00:57:18;;;;;;;71.47;64.93;;;;;;;0.17;100.00;101185.09;5011809;28;20533;-81
2022/01/11 00:59:45;;;;;;;66.80;60.72;;;;;;;1.18;100.00;101196.59;5015893;28;20045;-79
2022/01/11 01:02:13;;;;;;;68.35;62.33;;;;;;;0.25;100.00;101205.38;5012014;28;20112;-79
2022/01/11 01:04:39;;;;;;;72.38;66.00;;;;;;;0.97;100.00;101196.66;5013303;28;20111;-78
2022/01/11 01:07:06;;;;;;;62.47;56.53;;;;;;;-0.24;100.00;101197.97;5010139;28;20483;-80
2022/01/11 01:09:42;;;;;;;60.70;55.22;;;;;;;1.24;100.00;101206.53;5011930;28;20046;-79
2022/01/11 01:12:10;;;;;;;59.35;54.70;;;;;;;0.81;100.00;101205.00;5009127;28;20057;-78
2022/01/11 01:14:36;;;;;;;63.33;57.60;;;;;;;0.37;100.00;101218.25;5012340;28;20045;-79
2022/01/11 01:17:03;;;;;;;55.85;50.90;;;;;;;1.08;100.00;101207.88;5008958;28;20189;-79
2022/01/11 01:19:31;;;;;;;61.00;55.47;;;;;;;-0.24;100.00;101211.03;5015632;28;20080;-79
2022/01/11 01:21:58;;;;;;;61.83;56.47;;;;;;;-0.04;100.00;101225.06;5011933;28;20557;-78
2022/01/11 01:24:25;;;;;;;64.25;58.63;;;;;;;-0.29;100.00;101222.78;5012536;28;20046;-79
2022/01/11 01:26:52;;;;;;;67.00;61.22;;;;;;;1.24;100.00;101219.63;5011915;28;20069;-79
2022/01/11 01:29:19;;;;;;;60.97;55.70;;;;;;;-0.09;100.00;101219.41;5011679;28;20049;-79
2022/01/11 01:31:46;;;;;;;70.45;64.43;;;;;;;0.58;100.00;101202.56;5013527;28;20107;-79
2022/01/11 01:34:13;;;;;;;68.55;62.60;;;;;;;-0.41;100.00;101218.56;5013374;28;20054;-85
2022/01/11 01:36:41;;;;;;;65.03;59.35;;;;;;;-0.62;100.00;101213.25;5010272;28;20123;-81
2022/01/11 01:39:08;;;;;;;72.22;65.80;;;;;;;-0.37;100.00;101212.13;5011912;28;20134;-78
2022/01/11 01:41:35;;;;;;;66.60;60.67;;;;;;;-0.51;100.00;101219.28;5011643;28;20099;-80
2022/01/11 01:44:03;;;;;;;65.22;59.45;;;;;;;0.06;100.00;101214.72;5011479;28;20076;-78
2022/01/11 01:46:30;;;;;;;68.75;63.00;;;;;;;0.09;100.00;101221.47;5011557;28;20077;-79
2022/01/11 01:48:59;;;;;;;68.00;61.65;;;;;;;-0.72;100.00;101215.78;5012218;28;20120;-79
2022/01/11 01:51:27;;;;;;;64.53;58.40;;;;;;;-0.50;100.00;101220.94;5011850;28;20076;-80
2022/01/11 01:53:56;;;;;;;67.93;61.83;;;;;;;-0.65;100.00;101231.75;5013123;28;20132;-80
2022/01/11 01:56:23;;;;;;;70.22;64.15;;;;;;;0.21;100.00;101223.91;5010812;28;20127;-80
2022/01/11 01:58:51;;;;;;;76.32;69.60;;;;;;;-0.03;100.00;101225.91;5012574;28;20131;-79
2022/01/11 02:01:18;;;;;;;74.53;67.32;;;;;;;-0.69;100.00;101228.56;5009480;28;20046;-79
2022/01/11 02:03:46;;;;;;;81.35;74.32;;;;;;;-0.01;100.00;101237.06;5010632;28;20112;-82
2022/01/11 02:06:18;;;;;;;77.72;71.57;;;;;;;0.97;100.00;101222.81;5009474;28;20108;-79
2022/01/11 02:08:47;;;;;;;67.68;61.55;;;;;;;-0.58;100.00;101235.53;5011308;28;20123;-78
2022/01/11 02:11:17;;;;;;;66.72;60.63;;;;;;;1.58;100.00;101241.09;5010906;28;20053;-82
2022/01/11 02:13:45;;;;;;;70.88;64.15;;;;;;;-0.64;100.00;101256.91;5011560;28;20108;-78
2022/01/11 02:16:12;;;;;;;72.13;66.05;;;;;;;1.27;100.00;101246.38;5009719;28;20478;-79
2022/01/11 02:18:40;;;;;;;70.85;64.43;;;;;;;-0.47;100.00;101254.63;5010525;28;20120;-78
2022/01/11 02:21:09;;;;;;;65.43;59.83;;;;;;;-0.24;100.00;101259.81;5012391;28;20077;-79
2022/01/11 02:23:36;;;;;;;72.28;65.55;;;;;;;-0.68;100.00;101266.75;5009994;28;20057;-79
2022/01/11 02:26:03;;;;;;;72.47;65.90;;;;;;;-0.66;100.00;101272.69;5009354;28;20042;-80
2022/01/11 02:28:30;;;;;;;73.18;66.70;;;;;;;0.79;100.00;101262.69;5008907;28;20061;-79
2022/01/11 02:30:59;;;;;;;71.38;64.72;;;;;;;-0.63;100.00;101275.06;5010361;28;20115;-80
2022/01/11 02:33:33;;;;;;;73.28;66.95;;;;;;;-0.78;100.00;101281.47;5012644;28;20625;-79
2022/01/11 02:36:00;;;;;;;63.67;58.38;;;;;;;2.24;100.00;101282.38;5012059;28;20137;-80
2022/01/11 02:38:29;;;;;;;57.45;51.90;;;;;;;-0.58;100.00;101278.13;5009046;28;20050;-79
2022/01/11 02:40:55;;;;;;;59.45;54.42;;;;;;;1.05;100.00;101285.81;5012355;28;20463;-78
2022/01/11 02:43:22;;;;;;;63.75;57.58;;;;;;;-0.06;100.00;101296.66;5008535;28;20477;-80
2022/01/11 02:45:49;;;;;;;65.50;59.92;;;;;;;0.13;100.00;101294.25;5012699;28;20042;-79
2022/01/11 02:48:16;;;;;;;66.38;60.22;;;;;;;-0.25;100.00;101287.69;5010035;28;20050;-79
2022/01/11 02:50:44;;;;;;;69.25;63.38;;;;;;;-0.25;100.00;101292.06;5010627;28;20371;-78
2022/01/11 02:53:11;;;;;;;68.30;63.10;;;;;;;0.85;100.00;101297.97;5012419;28;20054;-80
2022/01/11 02:55:40;;;;;;;69.55;63.65;;;;;;;-0.57;100.00;101305.06;5011753;28;20116;-79
2022/01/11 02:58:07;;;;;;;65.60;60.75;;;;;;;1.12;100.00;101308.72;5010750;28;20050;-79
2022/01/11 03:03:22;;;;;;;78.35;71.65;;;;;;;-0.47;100.00;101300.78;525093;26;21002;-80
2022/01/11 03:05:52;;;;;;;66.88;61.35;;;;;;;-0.71;100.00;101299.13;5052595;28;20056;-79
2022/01/11 03:08:20;;;;;;;65.43;59.65;;;;;;;-0.73;100.00;101306.25;5048714;28;20049;-79
2022/01/11 03:10:49;;;;;;;74.13;67.72;;;;;;;-0.75;100.00;101315.97;5048081;28;20041;-81
2022/01/11 03:13:17;;;;;;;73.45;68.05;;;;;;;0.17;100.00;101313.94;5049621;28;20103;-79
2022/01/11 03:15:45;;;;;;;68.10;62.00;;;;;;;-0.99;100.00;101320.44;5048665;28;20126;-79
2022/01/11 03:18:12;;;;;;;73.75;67.30;;;;;;;-0.77;100.00;101335.28;5053077;28;20052;-78
2022/01/11 03:20:39;;;;;;;66.25;60.63;;;;;;;1.16;100.00;101318.91;5047099;28;20036;-78
2022/01/11 03:23:08;;;;;;;64.43;59.45;;;;;;;1.48;100.00;101327.44;5049247;28;20294;-79
2022/01/11 03:25:35;;;;;;;59.38;54.17;;;;;;;0.12;100.00;101323.09;5051605;28;20044;-79
2022/01/11 03:28:04;;;;;;;65.00;59.72;;;;;;;-0.37;100.00;101333.03;5051351;28;20048;-79
2022/01/11 03:30:32;;;;;;;64.78;59.40;;;;;;;0.35;100.00;101335.13;5047496;28;20085;-79
2022/01/11 03:32:58;;;;;;;54.53;50.70;;;;;;;2.27;100.00;101338.00;5052369;28;20554;-79
2022/01/11 03:35:26;;;;;;;66.38;60.75;;;;;;;0.09;100.00;101334.63;5046958;28;20557;-79
2022/01/11 03:37:53;;;;;;;73.75;66.95;;;;;;;-0.66;100.00;101348.34;5044087;28;20477;-78
2022/01/11 03:40:23;;;;;;;71.90;65.95;;;;;;;-0.72;100.00;101354.84;5049412;28;20443;-79
2022/01/11 03:42:50;;;;;;;75.70;69.55;;;;;;;0.36;100.00;101349.03;5042715;28;20067;-79
2022/01/11 03:45:21;;;;;;;72.50;66.15;;;;;;;-0.82;100.00;101347.84;5050667;28;20061;-80
2022/01/11 03:47:49;;;;;;;69.30;63.47;;;;;;;0.14;100.00;101344.72;5052661;28;20128;-79
2022/01/11 03:50:17;;;;;;;71.70;65.45;;;;;;;-0.72;100.00;101354.84;5048362;28;20481;-81
2022/01/11 03:52:44;;;;;;;69.22;62.72;;;;;;;-0.84;100.00;101363.63;5052767;28;20063;-79
2022/01/11 03:55:20;;;;;;;72.25;66.07;;;;;;;-0.97;100.00;101376.75;5048698;28;20056;-78
2022/01/11 03:57:48;;;;;;;64.40;58.13;;;;;;;-0.65;100.00;101373.47;5049120;28;20208;-79
2022/01/11 04:00:19;;;;;;;59.03;54.10;;;;;;;-1.05;100.00;101392.13;5048998;28;20110;-79
2022/01/11 04:02:46;;;;;;;67.10;61.17;;;;;;;-0.60;100.00;101409.69;5048201;28;20523;-79
2022/01/11 04:05:13;;;;;;;68.53;62.38;;;;;;;-0.39;100.00;101397.59;5051703;28;20102;-78
2022/01/11 04:07:41;;;;;;;62.38;56.28;;;;;;;-1.06;100.00;101405.28;5050141;28;20118;-80
2022/01/11 04:10:09;;;;;;;61.58;55.78;;;;;;;-0.11;100.00;101411.13;5046270;28;20045;-79
2022/01/11 04:12:36;;;;;;;63.38;57.95;;;;;;;-0.82;100.00;101415.66;5047569;28;20045;-79
2022/01/11 04:15:04;;;;;;;76.93;71.18;;;;;;;-0.55;100.00;101418.78;5046286;28;20177;-79
2022/01/11 04:17:32;;;;;;;79.78;73.43;;;;;;;-1.17;100.00;101426.94;5049673;28;20091;-79
2022/01/11 04:19:58;;;;;;;76.70;70.70;;;;;;;-0.19;100.00;101421.31;5051977;28;20075;-78
2022/01/11 04:22:25;;;;;;;71.70;65.72;;;;;;;-1.07;100.00;101440.94;5050071;28;20096;-82
2022/01/11 04:24:52;;;;;;;70.20;63.80;;;;;;;-1.07;100.00;101434.91;5046871;28;20044;-81
2022/01/11 04:27:19;;;;;;;70.32;64.40;;;;;;;0.03;100.00;101439.63;5047990;28;20435;-80
2022/01/11 04:29:45;;;;;;;69.65;64.07;;;;;;;-0.10;100.00;101444.94;5048982;28;20051;-78
2022/01/11 04:32:12;;;;;;;67.35;61.88;;;;;;;-1.01;100.00;101457.94;5051342;28;20106;-80
2022/01/11 04:34:40;;;;;;;69.10;63.15;;;;;;;0.91;100.00;101441.31;5056162;28;20086;-79
2022/01/11 04:37:07;;;;;;;66.18;60.28;;;;;;;-0.72;100.00;101455.78;5052381;28;20045;-79
2022/01/11 04:39:34;;;;;;;59.38;53.50;;;;;;;-0.97;100.00;101460.22;5051030;28;20114;-79
2022/01/11 04:42:01;;;;;;;61.70;55.88;;;;;;;-0.95;100.00;101471.34;5050735;28;20049;-78
2022/01/11 04:44:27;;;;;;;65.07;59.17;;;;;;;-0.59;100.00;101469.56;5050826;28;20052;-79
2022/01/11 04:46:54;;;;;;;65.15;59.22;;;;;;;-1.02;100.00;101466.69;5054620;28;20057;-79
2022/01/11 04:49:21;;;;;;;59.42;53.92;;;;;;;-0.39;100.00;101475.91;5055788;28;20049;-79
2022/01/11 04:51:49;;;;;;;58.30;52.90;;;;;;;-0.84;100.00;101477.56;5052642;28;20110;-79
2022/01/11 04:54:16;;;;;;;55.38;50.15;;;;;;;-0.08;100.00;101474.38;5051442;28;20454;-78
2022/01/11 04:56:43;;;;;;;58.63;53.13;;;;;;;-0.74;100.00;101479.34;5052256;28;20459;-79
2022/01/11 04:59:09;;;;;;;62.80;56.95;;;;;;;-0.45;100.00;101468.53;5050888;28;20057;-79
2022/01/11 05:01:36;;;;;;;46.40;43.03;;;;;;;1.80;100.00;101487.09;5052602;28;20044;-79
2022/01/11 05:04:04;;;;;;;55.53;50.20;;;;;;;-0.50;100.00;101487.13;5055532;28;20049;-79
2022/01/11 05:06:30;;;;;;;58.15;53.05;;;;;;;0.47;100.00;101495.38;5049749;28;20512;-78
2022/01/11 05:08:58;;;;;;;65.50;59.38;;;;;;;-0.92;100.00;101489.38;5052553;28;20049;-79
2022/01/11 05:11:25;;;;;;;70.78;64.05;;;;;;;-1.24;100.00;101499.56;5051328;28;20448;-78
2022/01/11 05:13:52;;;;;;;71.78;65.53;;;;;;;-1.48;100.00;101502.13;5054003;28;20513;-79
2022/01/11 05:16:19;;;;;;;75.68;68.53;;;;;;;-1.32;100.00;101506.25;5050779;28;20079;-80
2022/01/11 05:18:46;;;;;;;72.82;66.03;;;;;;;-0.94;100.00;101508.69;5054593;28;20465;-78
2022/01/11 05:21:13;;;;;;;59.33;53.70;;;;;;;-0.74;100.00;101504.63;5053078;28;20056;-79
2022/01/11 05:23:39;;;;;;;59.65;53.95;;;;;;;-1.11;100.00;101509.91;5049266;28;20042;-79
2022/01/11 05:26:08;;;;;;;56.25;50.97;;;;;;;-1.09;100.00;101513.25;5052046;28;20473;-79
2022/01/11 05:28:35;;;;;;;53.45;48.42;;;;;;;-0.71;100.00;101515.66;5053201;28;20045;-79
2022/01/11 05:31:02;;;;;;;56.47;51.63;;;;;;;0.56;100.00;101520.78;5050968;28;20068;-78
2022/01/11 05:33:29;;;;;;;53.58;49.08;;;;;;;-0.55;100.00;101517.97;5054093;28;20469;-79
2022/01/11 05:35:55;;;;;;;62.75;57.40;;;;;;;0.09;100.00;101509.66;5053317;28;20053;-79
2022/01/11 05:38:22;;;;;;;56.05;50.53;;;;;;;-0.83;100.00;101523.56;5048068;28;20115;-79
2022/01/11 05:40:50;;;;;;;55.10;50.30;;;;;;;-0.88;100.00;101521.28;5053463;28;20432;-79
2022/01/11 05:43:18;;;;;;;70.93;64.85;;;;;;;-0.11;100.00;101532.06;5048805;28;20110;-79
2022/01/11 05:45:45;;;;;;;55.58;50.78;;;;;;;-0.03;100.00;101527.09;5053152;28;20108;-80
2022/01/11 05:48:12;;;;;;;53.60;48.97;;;;;;;-0.64;100.00;101526.47;5051297;28;20041;-79
2022/01/11 05:50:38;;;;;;;54.13;49.50;;;;;;;-0.93;100.00;101523.41;5052504;28;20112;-79
2022/01/11 05:53:05;;;;;;;53.90;49.90;;;;;;;-0.36;100.00;101519.22;5053256;28;20056;-78
2022/01/11 05:55:32;;;;;;;61.70;56.30;;;;;;;-1.34;100.00;101523.75;5052110;28;20049;-79
2022/01/11 05:57:59;;;;;;;75.63;69.00;;;;;;;-1.43;100.00;101533.06;5052691;28;20143;-80
2022/01/11 06:00:27;;;;;;;80.82;73.43;;;;;;;-0.83;100.00;101537.44;5048955;28;20102;-79
2022/01/11 06:02:55;;;;;;;86.55;78.38;;;;;;;-1.30;100.00;101533.88;5051193;28;20110;-79
2022/01/11 06:05:23;;;;;;;91.22;83.15;;;;;;;-1.27;100.00;101538.88;5052935;28;20056;-79
2022/01/11 06:07:50;;;;;;;107.70;98.47;;;;;;;-1.51;100.00;101523.19;5051435;28;20048;-79
2022/01/11 06:10:17;;;;;;;106.35;96.82;;;;;;;-1.45;100.00;101525.38;5052387;28;20118;-78
2022/01/11 06:12:44;;;;;;;105.28;95.88;;;;;;;-1.27;100.00;101522.38;5051013;28;20041;-79
2022/01/11 06:15:11;;;;;;;116.13;105.22;;;;;;;-1.16;100.00;101528.47;5050619;28;20053;-78
2022/01/11 06:17:39;;;;;;;93.20;83.68;;;;;;;-1.36;100.00;101542.13;5048678;28;20041;-79
2022/01/11 06:20:08;;;;;;;91.30;82.45;;;;;;;-0.87;100.00;101550.81;5053935;28;20519;-80
2022/01/11 06:22:34;;;;;;;88.53;80.03;;;;;;;-1.17;100.00;101539.03;5050506;28;20460;-79
2022/01/11 06:25:03;;;;;;;82.45;74.97;;;;;;;-0.45;100.00;101562.50;5049561;28;20045;-79
2022/01/11 06:27:30;;;;;;;82.97;75.78;;;;;;;0.06;100.00;101569.13;5050781;28;20496;-79
2022/01/11 06:29:57;;;;;;;85.20;76.75;;;;;;;-0.78;100.00;101568.41;5044936;28;20045;-78
2022/01/11 06:32:24;;;;;;;82.60;75.07;;;;;;;-0.34;100.00;101579.97;5047928;28;20463;-79
2022/01/11 06:34:53;;;;;;;81.70;74.10;;;;;;;1.90;100.00;101572.75;5053905;28;20044;-79
2022/01/11 06:37:20;;;;;;;83.72;76.28;;;;;;;-0.16;100.00;101577.75;5047781;28;20389;-79
2022/01/11 06:39:47;;;;;;;85.78;78.55;;;;;;;0.24;100.00;101586.00;5052371;28;20481;-79
2022/01/11 06:42:13;;;;;;;93.03;85.07;;;;;;;1.21;100.00;101581.03;5051162;28;20118;-79
2022/01/11 06:44:42;;;;;;;73.03;66.32;;;;;;;-1.19;100.00;101591.28;5051997;28;20106;-79
2022/01/11 06:47:08;;;;;;;84.07;76.20;;;;;;;-0.85;100.00;101594.09;5048026;28;20473;-79
2022/01/11 06:49:35;;;;;;;79.63;71.32;;;;;;;-0.73;100.00;101598.44;5053198;28;20471;-79
2022/01/11 06:52:04;;;;;;;74.45;66.82;;;;;;;-1.12;100.00;101609.94;5049333;28;20481;-79
2022/01/11 06:54:31;;;;;;;68.80;61.70;;;;;;;-0.46;100.00;101595.56;5050281;28;20527;-79
2022/01/11 06:56:59;;;;;;;72.97;65.60;;;;;;;-1.02;100.00;101610.13;5046508;28;20048;-79
2022/01/11 06:59:35;;;;;;;104.60;76.88;;;;;;;1.82;100.00;101613.53;5050457;28;20049;-82
2022/01/11 07:02:02;;;;;;;77.55;70.47;;;;;;;-0.37;100.00;101616.72;4992057;28;20066;-78
2022/01/11 07:04:28;;;;;;;80.38;73.47;;;;;;;0.72;100.00;101613.72;5057743;28;20085;-82
2022/01/11 07:06:55;;;;;;;79.60;72.13;;;;;;;-0.97;100.00;101614.09;5046663;28;20053;-82
2022/01/11 07:09:23;;;;;;;90.40;82.05;;;;;;;-1.48;100.00;101611.56;5050798;28;20044;-81
2022/01/11 07:11:50;;;;;;;88.70;80.70;;;;;;;-1.12;100.00;101606.50;5050972;28;20118;-82
2022/01/11 07:14:17;;;;;;;86.72;78.95;;;;;;;-1.23;100.00;101620.28;5045172;28;20040;-81
2022/01/11 07:16:48;;;;;;;93.45;84.85;;;;;;;0.11;100.00;101627.91;5051124;28;20465;-81
2022/01/11 07:19:15;;;;;;;85.72;78.15;;;;;;;-1.09;100.00;101634.94;5054205;28;20045;-81
2022/01/11 07:21:44;;;;;;;91.00;82.32;;;;;;;-1.42;100.00;101634.59;5050402;28;20140;-81
2022/01/11 07:24:11;;;;;;;79.95;72.68;;;;;;;-1.44;100.00;101638.25;5047721;28;20400;-82
2022/01/11 07:26:40;;;;;;;84.13;76.78;;;;;;;-1.20;100.00;101646.16;5051129;28;20048;-80
2022/01/11 07:29:07;;;;;;;83.45;76.30;;;;;;;-0.10;100.00;101646.03;5050260;28;20102;-81
2022/01/11 07:31:36;;;;;;;81.75;74.75;;;;;;;-1.11;100.00;101662.94;5051082;28;20118;-81
2022/01/11 07:34:03;;;;;;;78.80;71.85;;;;;;;-1.49;100.00;101658.56;5051312;28;20060;-81
2022/01/11 07:36:30;;;;;;;76.50;69.78;;;;;;;-0.15;100.00;101656.00;5048498;28;20057;-78
2022/01/11 07:38:57;;;;;;;82.60;74.60;;;;;;;-1.51;100.00;101652.63;5047725;28;20057;-82
2022/01/11 07:41:24;;;;;;;82.47;74.88;;;;;;;-0.85;100.00;101664.50;5051827;28;20053;-81
2022/01/11 07:43:52;;;;;;;82.35;74.60;;;;;;;-1.68;100.00;101672.84;5052381;28;20045;-78
2022/01/11 07:46:19;;;;;;;78.95;71.43;;;;;;;-1.40;100.00;101663.97;5051154;28;20053;-79
2022/01/11 07:48:46;;;;;;;75.78;68.88;;;;;;;-1.74;100.00;101675.03;5053401;28;20045;-80
2022/01/11 07:51:12;;;;;;;78.63;71.43;;;;;;;-1.66;100.00;101672.75;5050551;28;20087;-79
2022/01/11 07:53:39;;;;;;;78.75;71.57;;;;;;;-1.03;100.00;101684.94;5051152;28;20110;-79
2022/01/11 07:56:06;;;;;;;79.75;72.45;;;;;;;-1.66;100.00;101684.00;5049682;28;20118;-82
2022/01/11 07:58:33;;;;;;;85.10;77.32;;;;;;;-1.15;100.00;101693.56;5052050;28;20130;-79
2022/01/11 08:01:01;;;;;;;87.55;79.43;;;;;;;-0.17;100.00;101691.84;5049473;28;20048;-79
2022/01/11 08:03:27;;;;;;;80.75;73.65;;;;;;;-0.44;100.00;101694.66;5046254;28;20049;-81
2022/01/11 08:05:54;;;;;;;82.85;75.78;;;;;;;-1.52;100.00;101709.13;5050151;28;20057;-81
2022/01/11 08:08:21;;;;;;;84.22;76.50;;;;;;;-1.50;100.00;101707.25;5053318;28;20049;-82
2022/01/11 08:10:48;;;;;;;89.00;81.32;;;;;;;-0.82;100.00;101713.03;5055894;28;20103;-77
2022/01/11 08:13:15;;;;;;;89.88;81.95;;;;;;;-1.71;100.00;101703.47;5051943;28;20053;-83
2022/01/11 08:15:44;;;;;;;96.45;87.78;;;;;;;-1.13;100.00;101706.50;5053848;28;20110;-79
2022/01/11 08:18:12;;;;;;;97.35;88.05;;;;;;;-0.81;100.00;101706.91;5052216;28;20187;-82
2022/01/11 08:20:38;;;;;;;91.32;82.72;;;;;;;-0.12;100.00;101714.97;5054428;28;20053;-83
2022/01/11 08:23:05;;;;;;;93.03;84.82;;;;;;;-1.62;100.00;101715.88;5053187;28;20119;-81
2022/01/11 08:25:32;;;;;;;87.47;79.63;;;;;;;-1.71;100.00;101717.34;5053944;28;20083;-78
2022/01/11 08:27:59;;;;;;;87.70;79.82;;;;;;;-1.49;100.00;101723.72;5050683;28;20110;-78
2022/01/11 08:30:27;;;;;;;87.32;79.18;;;;;;;0.38;100.00;101723.50;5053823;28;20110;-80
2022/01/11 08:32:54;;;;;;;81.07;74.35;;;;;;;-0.23;100.00;101726.22;5052826;28;20052;-78
2022/01/11 08:35:24;;;;;;;77.97;71.50;;;;;;;-0.99;100.00;101743.75;5055276;28;20060;-81
2022/01/11 08:37:51;;;;;;;72.32;65.90;;;;;;;-1.36;100.00;101741.97;5051861;28;20044;-78
2022/01/11 08:40:18;;;;;;;84.30;77.18;;;;;;;-0.52;100.00;101744.78;5051384;28;20041;-79
2022/01/11 08:42:45;;;;;;;87.47;79.75;;;;;;;-1.71;100.00;101735.56;5052090;28;20045;-79
2022/01/11 08:45:11;;;;;;;91.35;83.40;;;;;;;-1.77;100.00;101728.16;5053568;28;20044;-82
2022/01/11 08:47:38;;;;;;;88.03;80.10;;;;;;;0.19;100.00;101739.72;5051031;28;20041;-83
2022/01/11 08:50:09;;;;;;;88.75;80.68;;;;;;;-0.85;100.00;101737.56;5056518;28;20048;-78
2022/01/11 08:52:37;;;;;;;90.53;82.40;;;;;;;-0.88;100.00;101736.94;5054300;28;20049;-79
2022/01/11 08:55:06;;;;;;;79.85;72.85;;;;;;;-1.49;100.00;101727.16;5049954;28;20053;-80
2022/01/11 08:57:33;;;;;;;77.97;70.65;;;;;;;-1.61;100.00;101730.56;5052041;28;20040;-80
2022/01/11 09:00:02;;;;;;;83.32;76.00;;;;;;;-1.49;100.00;101736.75;5052338;28;20122;-79
2022/01/11 09:02:29;;;;;;;91.15;82.57;;;;;;;-1.49;100.00;101731.53;5053595;28;20121;-80
2022/01/11 09:04:56;;;;;;;89.53;81.68;;;;;;;-1.69;100.00;101715.47;5055231;28;20053;-80
2022/01/11 09:07:23;;;;;;;90.53;82.57;;;;;;;-1.71;100.00;101724.31;5050002;28;20118;-82
2022/01/11 09:09:52;;;;;;;86.43;78.75;;;;;;;-0.41;100.00;101731.00;5051505;28;20041;-81
2022/01/11 09:12:19;;;;;;;90.53;82.40;;;;;;;0.41;100.00;101716.25;5052124;28;20053;-82
2022/01/11 09:14:46;;;;;;;83.28;75.72;;;;;;;0.05;100.00;101714.59;5049656;28;20049;-81
2022/01/11 09:17:13;;;;;;;85.30;77.80;;;;;;;-0.02;100.00;101727.28;5047882;28;20045;-78
2022/01/11 09:19:40;;;;;;;82.18;74.82;;;;;;;-0.72;100.00;101727.13;5056052;28;20060;-81
2022/01/11 09:22:08;;;;;;;78.68;71.60;;;;;;;-0.38;100.00;101728.16;5053550;28;20512;-81
2022/01/11 09:24:36;;;;;;;77.82;71.38;;;;;;;-0.84;100.00;101725.38;5054496;28;20041;-80
2022/01/11 09:27:05;;;;;;;74.75;68.50;;;;;;;-0.64;100.00;101714.34;5058173;28;20135;-82
2022/01/11 09:29:34;;;;;;;72.97;67.13;;;;;;;-1.25;100.00;101722.06;5051425;28;20057;-81
2022/01/11 09:32:02;;;;;;;79.35;72.88;;;;;;;-1.43;100.00;101716.31;5053637;28;20057;-82
2022/01/11 09:34:40;;;;;;;78.68;72.38;;;;;;;-0.27;100.00;101720.41;5055249;28;20040;-81
2022/01/11 09:37:07;;;;;;;77.95;71.95;;;;;;;0.71;100.00;101719.28;5051192;28;20114;-82
2022/01/11 09:39:35;;;;;;;77.15;70.90;;;;;;;-0.80;100.00;101725.03;5050747;28;20104;-80
2022/01/11 09:42:02;;;;;;;70.38;64.78;;;;;;;0.48;100.00;101721.84;5053258;28;20080;-81
2022/01/11 09:44:32;;;;;;;78.35;71.72;;;;;;;-0.53;100.00;101724.03;5049377;28;20049;-81
2022/01/11 09:46:59;;;;;;;84.28;77.00;;;;;;;-1.48;100.00;101730.63;5052978;28;20071;-80
2022/01/11 09:49:26;;;;;;;84.72;77.18;;;;;;;0.05;100.00;101727.66;5051505;28;20114;-81
2022/01/11 09:51:55;;;;;;;81.85;74.78;;;;;;;-1.36;100.00;101744.56;5050948;28;20049;-79
2022/01/11 09:54:24;;;;;;;77.00;70.20;;;;;;;-0.93;100.00;101740.72;5049686;28;20053;-79
2022/01/11 09:56:50;;;;;;;75.57;68.60;;;;;;;-1.38;100.00;101747.28;5049681;28;20059;-78
2022/01/11 09:59:18;;;;;;;76.40;69.85;;;;;;;-0.79;100.00;101749.34;5053275;28;20473;-83
2022/01/11 10:01:47;;;;;;;82.43;75.60;;;;;;;-0.59;100.00;101755.78;5051037;28;20045;-78
2022/01/11 10:04:16;;;;;;;75.30;69.28;;;;;;;-1.19;100.00;101746.88;5058948;28;20481;-81
2022/01/11 10:06:43;;;;;;;78.88;72.32;;;;;;;-1.04;100.00;101745.00;5049786;28;20565;-82
2022/01/11 10:09:16;;;;;;;75.18;68.88;;;;;;;-1.07;100.00;101751.25;5053472;28;20118;-82
2022/01/11 10:11:45;;;;;;;73.05;66.78;;;;;;;-1.31;100.00;101752.91;5049351;28;20084;-81
2022/01/11 10:14:24;;;;;;;74.90;68.53;;;;;;;1.00;100.00;101751.03;5052317;28;20040;-82
2022/01/11 10:17:09;;;;;;;75.40;68.97;;;;;;;-0.64;100.00;101761.31;5050453;28;20056;-81
2022/01/11 10:19:37;;;;;;;71.97;65.88;;;;;;;-1.44;100.00;101763.34;5050681;28;20052;-81
2022/01/11 10:22:06;;;;;;;79.20;72.53;;;;;;;-1.60;100.00;101758.31;5048937;28;20052;-78
2022/01/11 10:24:38;;;;;;;83.68;76.88;;;;;;;-1.53;100.00;101762.19;5049016;28;20049;-81
2022/01/11 10:27:08;;;;;;;80.55;73.90;;;;;;;-0.74;100.00;101773.34;5051552;28;20386;-79
2022/01/11 10:29:40;;;;;;;79.20;72.30;;;;;;;-1.59;100.00;101767.78;5051159;28;20045;-79
2022/01/11 10:32:21;;;;;;;85.85;78.13;;;;;;;-0.46;100.00;101767.84;5051133;28;20049;-78
2022/01/11 10:34:50;;;;;;;81.55;74.90;;;;;;;-1.28;100.00;101770.97;5054477;28;20106;-78
2022/01/11 10:37:28;;;;;;;76.00;69.75;;;;;;;-0.61;100.00;101779.38;5050862;28;20048;-82
2022/01/11 10:40:04;;;;;;;61.33;57.08;;;;;;;0.75;100.00;101771.22;5044404;28;20045;-80
2022/01/11 10:42:33;;;;;;;72.07;66.38;;;;;;;-1.17;100.00;101758.88;5049869;28;20049;-79
2022/01/11 10:45:01;;;;;;;67.57;62.65;;;;;;;-0.44;100.00;101756.47;5050643;28;20087;-78
2022/01/11 10:47:31;;;;;;;67.88;62.80;;;;;;;-0.95;100.00;101760.00;5047121;28;20045;-80
2022/01/11 10:50:02;;;;;;;70.55;65.05;;;;;;;-1.12;100.00;101749.88;5050103;28;20083;-82
2022/01/11 10:52:31;;;;;;;71.90;66.28;;;;;;;0.05;100.00;101750.34;5048606;28;20071;-81
2022/01/11 10:54:59;;;;;;;75.47;69.68;;;;;;;-0.13;100.00;101748.09;5051927;28;20055;-80
2022/01/11 10:57:28;;;;;;;71.25;65.78;;;;;;;-0.74;100.00;101755.91;5046512;28;20461;-81
2022/01/11 11:00:15;;;;;;;68.13;62.83;;;;;;;-0.72;100.00;101766.25;5049827;28;20118;-82
2022/01/11 11:02:45;;;;;;;69.53;63.97;;;;;;;-1.29;100.00;101754.50;5042717;28;20091;-80
2022/01/11 11:05:23;;;;;;;75.82;69.70;;;;;;;-0.81;100.00;101761.69;5053082;28;20127;-81
2022/01/11 11:07:59;;;;;;;73.95;68.10;;;;;;;-1.42;100.00;101749.28;5049690;28;20053;-81
2022/01/11 11:10:39;;;;;;;71.43;65.60;;;;;;;-0.65;100.00;101758.81;5048541;28;20052;-78